Hinckley, United Kingdom
Current Conditions -  °F | °C
As of 1:20 AM on Saturday 25 Oct 2014 (Local Time) from EGBE Reporting Station
Light Fog Light Fog  
Wind Chill: 42°   Ceiling: Unl
Heat Index: 45°   Visibility: 6mi
Dew Point: 45°   Wind: 5mph
Humidity: 100%   Direction: 190°S
Pressure: 29.97"   Gusts: NA
Location:  52.54°N, 1.37°W
Report Text: EGBE 250020Z 19004KT 9999 MIFG FEW045 07/07 Q1015
Loading
Personal Weather Stations






























Interactive Weather Map
Tropical Storm Tracking
New forecast layout! Learn more

10-Day Weather Forecast

Advertisements
Track Severe Weather on mobile